Time;durP1;ratioP1;P1;durP2;ratioP2;P2;SDS_P1;SDS_P2;PMS_P1;PMS_P2;Temp;Humidity;BMP_temperature;BMP_pressure;BME280_temperature;BME280_humidity;BME280_pressure;Samples;Min_cycle;Max_cycle;Signal;HPM_P1;HPM_P2
2021/12/02 00:00:20;;;;;;;;;;;4.60;99.90;;;;;;4958008;28;20032;-84
2021/12/02 00:02:46;;;;;;;;;;;4.60;99.90;;;;;;4961652;28;20013;-85
2021/12/02 00:05:12;;;;;;;;;;;4.70;99.90;;;;;;4964263;28;19927;-84
2021/12/02 00:07:37;;;;;;;;;;;4.70;99.90;;;;;;4974233;28;20370;-84
2021/12/02 00:10:04;;;;;;;;;;;4.70;99.90;;;;;;4959120;28;20012;-84
2021/12/02 00:12:30;;;;;;;;;;;4.70;99.90;;;;;;4957233;28;19927;-84
2021/12/02 00:14:58;;;;;;;;;;;4.60;99.90;;;;;;4974041;28;19973;-83
2021/12/02 00:17:28;;;;;;;;;;;4.60;99.90;;;;;;4974138;28;19933;-84
2021/12/02 00:22:51;;;;;;;;;;;4.50;99.90;;;;;;4968730;28;19926;-83
2021/12/02 00:25:17;;;;;;;;;;;4.50;99.90;;;;;;4965660;28;19978;-86
2021/12/02 00:27:43;;;;;;;;;;;4.50;99.90;;;;;;4958015;28;19927;-87
2021/12/02 00:30:09;;;;;;;;;;;4.60;99.90;;;;;;4958692;28;19926;-82
2021/12/02 00:32:41;;;;;;;;;;;4.60;99.90;;;;;;4955137;28;20279;-81
2021/12/02 00:35:08;;;;;;;;;;;4.40;99.90;;;;;;4963717;28;19973;-81
2021/12/02 00:37:36;;;;;;;;;;;4.30;99.90;;;;;;4989103;28;19936;-81
2021/12/02 00:40:02;;;;;;;;;;;4.20;99.90;;;;;;4969490;28;19926;-80
2021/12/02 00:42:28;;;;;;;;;;;4.10;99.90;;;;;;4968492;28;19930;-81
2021/12/02 00:44:56;;;;;;;;;;;4.10;99.90;;;;;;4963181;28;19926;-80
2021/12/02 00:47:23;;;;;;;;;;;4.00;99.90;;;;;;4955581;28;19933;-81
2021/12/02 00:49:48;;;;;;;;;;;4.10;99.90;;;;;;4967866;28;19934;-82
2021/12/02 00:52:15;;;;;;;;;;;4.10;99.90;;;;;;4940165;28;20392;-82
2021/12/02 00:54:42;;;;;;;;;;;4.10;99.90;;;;;;4968957;28;19930;-81
2021/12/02 00:57:09;;;;;;;;;;;4.10;99.90;;;;;;4973880;28;19985;-81
2021/12/02 00:59:35;;;;;;;;;;;4.10;99.90;;;;;;4963127;28;19930;-81
2021/12/02 01:02:01;;;;;;;;;;;4.10;99.90;;;;;;4970144;28;19926;-80
2021/12/02 01:04:27;;;;;;;;;;;4.10;99.90;;;;;;4970907;28;20027;-81
2021/12/02 01:06:53;;;;;;;;;;;4.10;99.90;;;;;;4973869;28;20002;-81
2021/12/02 01:09:19;;;;;;;;;;;4.10;99.90;;;;;;4973460;28;19930;-81
2021/12/02 01:11:45;;;;;;;;;;;4.10;99.90;;;;;;4954663;28;19928;-81
2021/12/02 01:14:11;;;;;;;;;;;4.10;99.90;;;;;;4969842;28;19926;-80
2021/12/02 01:16:37;;;;;;;;;;;4.10;99.90;;;;;;4973370;28;20004;-80
2021/12/02 01:19:03;;;;;;;;;;;4.20;99.90;;;;;;4973701;28;20323;-83
2021/12/02 01:21:29;;;;;;;;;;;4.20;99.90;;;;;;4972971;28;20342;-80
2021/12/02 01:23:57;;;;;;;;;;;4.20;99.90;;;;;;4961274;28;19926;-81
2021/12/02 01:26:23;;;;;;;;;;;4.20;99.90;;;;;;4962288;28;19927;-82
2021/12/02 01:28:50;;;;;;;;;;;4.20;99.90;;;;;;4954306;29;19934;-81
2021/12/02 01:31:16;;;;;;;;;;;4.20;99.90;;;;;;4954746;28;20005;-83
2021/12/02 01:33:44;;;;;;;;;;;4.20;99.90;;;;;;4955642;28;19930;-82
2021/12/02 01:36:10;;;;;;;;;;;4.10;99.90;;;;;;4955444;28;19950;-82
2021/12/02 01:38:36;;;;;;;;;;;4.00;99.90;;;;;;4967311;28;19926;-82
2021/12/02 01:41:02;;;;;;;;;;;3.90;99.90;;;;;;4963625;28;19933;-82
2021/12/02 01:43:40;;;;;;;;;;;3.80;99.90;;;;;;4957646;28;19930;-82
2021/12/02 01:46:06;;;;;;;;;;;3.80;99.90;;;;;;4973005;28;19941;-82
2021/12/02 01:48:35;;;;;;;;;;;3.70;99.90;;;;;;4957532;28;19926;-82
2021/12/02 01:51:02;;;;;;;;;;;3.70;99.90;;;;;;4953138;28;19933;-82
2021/12/02 01:53:30;;;;;;;;;;;3.70;99.90;;;;;;4965014;28;20410;-82
2021/12/02 01:56:07;;;;;;;;;;;3.70;99.90;;;;;;4975357;28;19978;-82
2021/12/02 01:58:36;;;;;;;;;;;3.70;99.90;;;;;;4954241;28;19927;-82
2021/12/02 02:01:05;;;;;;;;;;;3.60;99.90;;;;;;4949334;29;19926;-82
2021/12/02 02:03:30;;;;;;;;;;;3.60;99.90;;;;;;4958585;28;19926;-82
2021/12/02 02:05:59;;;;;;;;;;;3.60;99.90;;;;;;4965964;28;19949;-83
2021/12/02 02:08:26;;;;;;;;;;;3.60;99.90;;;;;;4957969;29;19933;-82
2021/12/02 02:10:52;;;;;;;;;;;3.60;99.90;;;;;;4974217;28;20040;-82
2021/12/02 02:13:20;;;;;;;;;;;3.50;99.90;;;;;;4977485;28;20394;-82
2021/12/02 02:15:49;;;;;;;;;;;3.60;99.90;;;;;;4975294;28;19985;-82
2021/12/02 02:18:22;;;;;;;;;;;3.60;99.90;;;;;;4976800;28;19933;-84
2021/12/02 02:23:22;;;;;;;;;;;3.70;99.90;;;;;;4975285;28;19973;-83
2021/12/02 02:25:48;;;;;;;;;;;3.70;99.90;;;;;;4971356;28;19926;-83
2021/12/02 02:28:14;;;;;;;;;;;3.70;99.90;;;;;;4957183;28;19927;-82
2021/12/02 02:30:40;;;;;;;;;;;3.70;99.90;;;;;;4959486;28;19930;-82
2021/12/02 02:33:06;;;;;;;;;;;3.70;99.90;;;;;;4950645;28;19926;-82
2021/12/02 02:35:32;;;;;;;;;;;3.70;99.90;;;;;;4975323;28;19933;-83
2021/12/02 02:38:00;;;;;;;;;;;3.70;99.90;;;;;;4974449;28;19937;-82
2021/12/02 02:40:26;;;;;;;;;;;3.70;99.90;;;;;;4972620;28;19974;-82
2021/12/02 02:42:57;;;;;;;;;;;3.70;99.90;;;;;;4926189;29;19942;-83
2021/12/02 02:45:23;;;;;;;;;;;3.70;99.90;;;;;;4957554;28;20376;-83
2021/12/02 02:47:49;;;;;;;;;;;3.80;99.90;;;;;;4960896;28;19926;-82
2021/12/02 02:50:15;;;;;;;;;;;3.80;99.90;;;;;;4952356;28;20295;-83
2021/12/02 02:52:41;;;;;;;;;;;3.90;99.90;;;;;;4976191;28;19933;-82
2021/12/02 02:55:09;;;;;;;;;;;3.80;99.90;;;;;;4957785;28;19926;-82
2021/12/02 02:57:44;;;;;;;;;;;3.80;99.90;;;;;;4956792;29;20419;-83
2021/12/02 03:00:17;;;;;;;;;;;3.80;99.90;;;;;;4940179;28;20024;-83
2021/12/02 03:03:18;;;;;;;;;;;3.80;99.90;;;;;;4940740;29;20025;-83
2021/12/02 03:08:37;;;;;;;;;;;3.80;99.90;;;;;;4943695;29;20390;-83
2021/12/02 03:11:02;;;;;;;;;;;3.80;99.90;;;;;;4969820;28;19926;-83
2021/12/02 03:13:38;;;;;;;;;;;3.70;99.90;;;;;;4975706;28;20310;-83
2021/12/02 03:18:51;;;;;;;;;;;3.80;99.90;;;;;;4975526;28;19945;-83
2021/12/02 03:21:21;;;;;;;;;;;3.80;99.90;;;;;;4953545;28;19926;-83
2021/12/02 03:23:54;;;;;;;;;;;3.80;99.90;;;;;;4959858;28;19977;-83
2021/12/02 03:26:20;;;;;;;;;;;3.90;99.90;;;;;;4966927;28;19927;-83
2021/12/02 03:28:46;;;;;;;;;;;3.90;99.90;;;;;;4940057;29;19926;-83
2021/12/02 03:31:12;;;;;;;;;;;4.00;99.90;;;;;;4962518;28;19981;-80
2021/12/02 03:33:38;;;;;;;;;;;4.10;99.90;;;;;;4975366;28;19981;-81
2021/12/02 03:36:03;;;;;;;;;;;3.80;99.90;;;;;;4959819;28;19934;-83
2021/12/02 03:38:29;;;;;;;;;;;3.70;99.90;;;;;;4960118;28;19926;-83
2021/12/02 03:40:54;;;;;;;;;;;3.60;99.90;;;;;;4958263;28;19926;-81
2021/12/02 03:43:21;;;;;;;;;;;3.50;99.90;;;;;;4973280;28;19943;-81
2021/12/02 03:45:47;;;;;;;;;;;3.40;99.90;;;;;;4976488;28;19933;-80
2021/12/02 03:48:13;;;;;;;;;;;3.40;99.90;;;;;;4959339;28;19930;-82
2021/12/02 03:50:38;;;;;;;;;;;3.30;99.90;;;;;;4973097;28;20119;-81
2021/12/02 03:53:04;;;;;;;;;;;3.30;99.90;;;;;;4959342;28;19926;-81
2021/12/02 03:55:30;;;;;;;;;;;3.20;99.90;;;;;;4975189;28;20005;-80
2021/12/02 03:57:55;;;;;;;;;;;3.20;99.90;;;;;;4973019;28;19926;-81
2021/12/02 04:00:21;;;;;;;;;;;3.10;99.90;;;;;;4959375;28;19926;-82
2021/12/02 04:02:46;;;;;;;;;;;3.10;99.90;;;;;;4954123;28;19926;-82
2021/12/02 04:05:12;;;;;;;;;;;3.10;99.90;;;;;;4958772;28;19926;-80
2021/12/02 04:07:38;;;;;;;;;;;3.10;99.90;;;;;;4957112;28;20003;-80
2021/12/02 04:10:03;;;;;;;;;;;3.10;99.90;;;;;;4958969;28;19926;-81
2021/12/02 04:12:55;;;;;;;;;;;3.20;99.90;;;;;;4973705;28;19926;-81
2021/12/02 04:15:39;;;;;;;;;;;3.30;99.90;;;;;;4960043;28;19926;-81
2021/12/02 04:18:05;;;;;;;;;;;3.30;99.90;;;;;;4956615;28;20447;-82
2021/12/02 04:20:30;;;;;;;;;;;3.40;99.90;;;;;;4955732;28;19926;-82
2021/12/02 04:22:56;;;;;;;;;;;3.50;99.90;;;;;;4950346;28;20458;-82
2021/12/02 04:25:22;;;;;;;;;;;3.50;99.90;;;;;;4973045;28;19926;-81
2021/12/02 04:27:48;;;;;;;;;;;3.50;99.90;;;;;;4962990;28;20410;-82
2021/12/02 04:30:15;;;;;;;;;;;3.60;99.90;;;;;;4957241;28;19927;-83
2021/12/02 04:32:41;;;;;;;;;;;3.70;99.90;;;;;;4969120;28;19970;-82
2021/12/02 04:35:07;;;;;;;;;;;3.80;99.90;;;;;;4957792;28;19965;-82
2021/12/02 04:37:33;;;;;;;;;;;3.80;99.90;;;;;;4967352;28;19926;-82
2021/12/02 04:39:58;;;;;;;;;;;3.90;99.90;;;;;;4974045;28;19934;-82
2021/12/02 04:42:24;;;;;;;;;;;3.90;99.90;;;;;;4971255;28;20025;-82
2021/12/02 04:44:50;;;;;;;;;;;4.00;99.90;;;;;;4957550;28;19927;-83
2021/12/02 04:47:16;;;;;;;;;;;4.00;99.90;;;;;;4955440;28;20299;-83
2021/12/02 04:49:42;;;;;;;;;;;4.00;99.90;;;;;;4970745;28;19926;-83
2021/12/02 04:52:08;;;;;;;;;;;3.90;99.90;;;;;;4957920;28;19933;-83
2021/12/02 04:54:33;;;;;;;;;;;4.00;99.90;;;;;;4923746;29;20017;-83
2021/12/02 04:56:59;;;;;;;;;;;3.90;99.90;;;;;;4965901;28;20900;-83
2021/12/02 04:59:25;;;;;;;;;;;3.90;99.90;;;;;;4970355;28;19930;-82
2021/12/02 05:01:50;;;;;;;;;;;3.90;99.90;;;;;;4959316;28;19926;-82
2021/12/02 05:04:16;;;;;;;;;;;3.90;99.90;;;;;;4965162;28;19949;-83
2021/12/02 05:06:42;;;;;;;;;;;3.80;99.90;;;;;;4944127;29;20393;-83
2021/12/02 05:09:07;;;;;;;;;;;3.80;99.90;;;;;;4956059;28;19927;-83
2021/12/02 05:11:34;;;;;;;;;;;3.80;99.90;;;;;;4969837;28;19926;-82
2021/12/02 05:14:00;;;;;;;;;;;3.80;99.90;;;;;;4955942;28;20390;-81
2021/12/02 05:16:25;;;;;;;;;;;3.80;99.90;;;;;;4974207;28;19926;-81
2021/12/02 05:18:51;;;;;;;;;;;3.90;99.90;;;;;;4969710;28;19926;-81
2021/12/02 05:21:16;;;;;;;;;;;3.90;99.90;;;;;;4955686;29;20395;-83
2021/12/02 05:23:42;;;;;;;;;;;4.00;99.90;;;;;;4959835;28;20375;-81
2021/12/02 05:26:08;;;;;;;;;;;3.90;99.90;;;;;;4973388;28;20013;-81
2021/12/02 05:28:34;;;;;;;;;;;3.70;99.90;;;;;;4957331;28;20401;-80
2021/12/02 05:30:59;;;;;;;;;;;3.60;99.90;;;;;;4947921;28;19933;-81
2021/12/02 05:33:25;;;;;;;;;;;3.50;99.90;;;;;;4943917;28;19926;-81
2021/12/02 05:35:51;;;;;;;;;;;3.40;99.90;;;;;;4955939;28;19926;-81
2021/12/02 05:38:16;;;;;;;;;;;3.40;99.90;;;;;;4954239;29;19926;-81
2021/12/02 05:40:42;;;;;;;;;;;3.40;99.90;;;;;;4961041;28;19926;-81
2021/12/02 05:43:08;;;;;;;;;;;3.40;99.90;;;;;;4970291;28;19930;-81
2021/12/02 05:45:33;;;;;;;;;;;3.50;99.90;;;;;;4964496;28;19935;-81
2021/12/02 05:47:59;;;;;;;;;;;3.50;99.90;;;;;;4956736;28;20367;-82
2021/12/02 05:50:25;;;;;;;;;;;3.60;99.90;;;;;;4954255;29;20010;-82
2021/12/02 05:52:50;;;;;;;;;;;3.60;99.90;;;;;;4957509;28;19969;-82
2021/12/02 05:55:16;;;;;;;;;;;3.80;99.90;;;;;;4939490;29;19927;-82
2021/12/02 05:57:42;;;;;;;;;;;3.80;99.90;;;;;;4959582;28;19927;-82
2021/12/02 06:00:08;;;;;;;;;;;3.90;99.90;;;;;;4938898;28;20030;-82
2021/12/02 06:02:36;;;;;;;;;;;3.90;99.90;;;;;;4973362;28;19977;-83
2021/12/02 06:05:02;;;;;;;;;;;3.90;99.90;;;;;;4957484;28;19926;-83
2021/12/02 06:07:28;;;;;;;;;;;3.90;99.90;;;;;;4954277;28;19937;-83
2021/12/02 06:09:54;;;;;;;;;;;3.90;99.90;;;;;;4957326;28;19926;-82
2021/12/02 06:12:19;;;;;;;;;;;3.80;99.90;;;;;;4954518;28;19962;-83
2021/12/02 06:14:45;;;;;;;;;;;3.80;99.90;;;;;;4938281;28;19927;-82
2021/12/02 06:17:10;;;;;;;;;;;3.70;99.90;;;;;;4958785;28;19934;-83
2021/12/02 06:19:36;;;;;;;;;;;3.70;99.90;;;;;;4953925;29;19927;-83
2021/12/02 06:22:02;;;;;;;;;;;3.80;99.90;;;;;;4956797;28;19926;-83
2021/12/02 06:24:30;;;;;;;;;;;3.80;99.90;;;;;;4951500;29;19977;-83
2021/12/02 06:26:56;;;;;;;;;;;3.80;99.90;;;;;;4951800;28;19926;-82
2021/12/02 06:29:22;;;;;;;;;;;3.80;99.90;;;;;;4963198;28;19926;-83
2021/12/02 06:31:47;;;;;;;;;;;3.80;99.90;;;;;;4950572;28;19930;-83
2021/12/02 06:34:13;;;;;;;;;;;3.90;99.90;;;;;;4963708;28;20375;-83
2021/12/02 06:36:39;;;;;;;;;;;3.90;99.90;;;;;;4946889;28;19930;-84
2021/12/02 06:39:05;;;;;;;;;;;3.90;99.90;;;;;;4965403;28;19941;-83
2021/12/02 06:41:32;;;;;;;;;;;3.90;99.90;;;;;;4960725;28;19927;-83
2021/12/02 06:43:58;;;;;;;;;;;3.90;99.90;;;;;;4962019;28;19949;-83
2021/12/02 06:46:24;;;;;;;;;;;3.90;99.90;;;;;;4959329;28;19934;-83
2021/12/02 06:48:49;;;;;;;;;;;4.00;99.90;;;;;;4954580;28;20021;-83
2021/12/02 06:51:17;;;;;;;;;;;3.90;99.90;;;;;;4962902;28;19934;-83
2021/12/02 06:53:42;;;;;;;;;;;3.90;99.90;;;;;;4958209;28;19933;-83
2021/12/02 06:56:08;;;;;;;;;;;3.90;99.90;;;;;;4958327;28;19930;-83
2021/12/02 06:58:34;;;;;;;;;;;3.80;99.90;;;;;;4971956;28;19926;-82
2021/12/02 07:00:59;;;;;;;;;;;3.80;99.90;;;;;;4957025;29;20020;-82
2021/12/02 07:03:25;;;;;;;;;;;3.80;99.90;;;;;;4959416;28;20334;-83
2021/12/02 07:05:50;;;;;;;;;;;3.80;99.90;;;;;;4944338;28;19932;-83
2021/12/02 07:08:16;;;;;;;;;;;3.70;99.90;;;;;;4962684;28;19927;-81
2021/12/02 07:10:42;;;;;;;;;;;3.80;99.90;;;;;;4945668;28;20434;-83
2021/12/02 07:13:08;;;;;;;;;;;3.70;99.90;;;;;;4935864;28;19926;-85
2021/12/02 07:15:40;;;;;;;;;;;3.70;99.90;;;;;;4937456;28;19926;-85
2021/12/02 07:18:12;;;;;;;;;;;3.70;99.90;;;;;;4949526;28;20267;-85
2021/12/02 07:20:38;;;;;;;;;;;3.70;99.90;;;;;;4960311;28;19922;-85
2021/12/02 07:23:04;;;;;;;;;;;3.70;99.90;;;;;;4957349;28;19922;-89
2021/12/02 07:25:30;;;;;;;;;;;3.70;99.90;;;;;;4941440;29;19922;-87
2021/12/02 07:27:55;;;;;;;;;;;3.60;99.90;;;;;;4956415;29;19989;-86
2021/12/02 07:30:21;;;;;;;;;;;3.60;99.90;;;;;;4958099;28;19922;-87
2021/12/02 07:32:51;;;;;;;;;;;3.60;99.90;;;;;;4976542;28;19924;-87
2021/12/02 07:35:17;;;;;;;;;;;3.60;99.90;;;;;;4976110;28;19922;-86
2021/12/02 07:37:48;;;;;;;;;;;3.70;99.90;;;;;;4976047;28;19922;-85
2021/12/02 07:40:14;;;;;;;;;;;3.80;99.90;;;;;;4975495;28;20322;-83
2021/12/02 07:42:40;;;;;;;;;;;3.90;99.90;;;;;;4944193;28;19922;-80
2021/12/02 07:45:06;;;;;;;;;;;3.90;99.90;;;;;;4976868;28;19944;-83
2021/12/02 07:47:32;;;;;;;;;;;3.90;99.90;;;;;;4975559;28;19989;-82
2021/12/02 07:49:58;;;;;;;;;;;4.00;99.90;;;;;;4970912;28;19922;-82
2021/12/02 07:52:24;;;;;;;;;;;4.00;99.90;;;;;;4962541;28;19972;-83
2021/12/02 07:54:51;;;;;;;;;;;4.00;99.90;;;;;;4965014;28;19961;-85
2021/12/02 07:57:17;;;;;;;;;;;4.10;99.90;;;;;;4951755;28;19922;-83
2021/12/02 07:59:42;;;;;;;;;;;4.10;99.90;;;;;;4966567;28;19945;-83
2021/12/02 08:02:13;;;;;;;;;;;4.10;99.90;;;;;;4983730;28;20363;-83
2021/12/02 08:04:39;;;;;;;;;;;4.10;99.90;;;;;;4971527;28;19930;-84
2021/12/02 08:07:04;;;;;;;;;;;4.10;99.90;;;;;;4939994;29;19946;-84
2021/12/02 08:09:30;;;;;;;;;;;4.10;99.90;;;;;;4970938;28;19922;-82
2021/12/02 08:11:59;;;;;;;;;;;4.10;99.90;;;;;;4975058;28;19929;-83
2021/12/02 08:14:24;;;;;;;;;;;4.10;99.90;;;;;;4975518;28;19929;-82
2021/12/02 08:16:50;;;;;;;;;;;4.10;99.90;;;;;;4958648;28;19922;-83
2021/12/02 08:19:15;;;;;;;;;;;4.10;99.90;;;;;;4975407;28;20009;-82
2021/12/02 08:21:41;;;;;;;;;;;4.00;99.90;;;;;;4957774;28;19926;-83
2021/12/02 08:24:06;;;;;;;;;;;4.20;99.90;;;;;;4959458;28;20001;-83
2021/12/02 08:26:32;;;;;;;;;;;4.10;99.90;;;;;;4965673;28;19922;-82
2021/12/02 08:28:58;;;;;;;;;;;4.20;99.90;;;;;;4974440;28;20410;-82
2021/12/02 08:31:24;;;;;;;;;;;4.20;99.90;;;;;;4973408;28;19967;-83
2021/12/02 08:33:51;;;;;;;;;;;4.20;99.90;;;;;;4975146;28;19922;-82
2021/12/02 08:36:19;;;;;;;;;;;4.20;99.90;;;;;;4941588;28;19926;-83
2021/12/02 08:38:47;;;;;;;;;;;4.20;99.90;;;;;;4943583;28;19929;-83
2021/12/02 08:41:13;;;;;;;;;;;4.20;99.90;;;;;;4968246;28;19922;-83
2021/12/02 08:43:39;;;;;;;;;;;4.20;99.90;;;;;;4939803;29;19930;-82
2021/12/02 08:46:04;;;;;;;;;;;4.20;99.90;;;;;;4955881;28;19973;-83
2021/12/02 08:48:30;;;;;;;;;;;4.30;99.90;;;;;;4971532;28;19922;-83
2021/12/02 08:50:55;;;;;;;;;;;4.30;99.90;;;;;;4972477;28;20381;-83
2021/12/02 08:53:21;;;;;;;;;;;4.30;99.90;;;;;;4974737;28;19922;-82
2021/12/02 08:55:47;;;;;;;;;;;4.30;99.90;;;;;;4974838;28;19928;-82
2021/12/02 08:58:12;;;;;;;;;;;4.30;99.90;;;;;;4942670;29;19922;-83
2021/12/02 09:00:40;;;;;;;;;;;4.20;99.90;;;;;;4955475;29;20359;-82
2021/12/02 09:03:07;;;;;;;;;;;4.30;99.90;;;;;;4968561;28;19926;-83
2021/12/02 09:05:33;;;;;;;;;;;4.30;99.90;;;;;;4974396;28;19922;-82
2021/12/02 09:07:59;;;;;;;;;;;4.30;99.90;;;;;;4962820;28;19999;-82
2021/12/02 09:10:27;;;;;;;;;;;4.40;99.90;;;;;;4954933;28;19927;-83
2021/12/02 09:12:53;;;;;;;;;;;4.50;99.90;;;;;;4958123;28;19922;-83
2021/12/02 09:15:19;;;;;;;;;;;4.50;99.90;;;;;;4974278;28;19953;-83
2021/12/02 09:17:44;;;;;;;;;;;4.60;99.90;;;;;;4968497;28;19922;-82
2021/12/02 09:20:11;;;;;;;;;;;4.80;99.90;;;;;;4970466;28;19929;-83
2021/12/02 09:22:37;;;;;;;;;;;4.70;99.90;;;;;;4972174;28;19922;-83
2021/12/02 09:25:03;;;;;;;;;;;4.80;99.90;;;;;;4939117;29;20244;-83
2021/12/02 09:27:29;;;;;;;;;;;4.90;99.90;;;;;;4954396;29;20009;-82
2021/12/02 09:29:55;;;;;;;;;;;5.00;99.90;;;;;;4923179;28;19927;-84
2021/12/02 09:32:20;;;;;;;;;;;5.20;99.90;;;;;;4970225;28;20327;-83
2021/12/02 09:34:47;;;;;;;;;;;5.40;99.90;;;;;;4941884;28;19969;-83
2021/12/02 09:37:13;;;;;;;;;;;5.40;99.90;;;;;;4958082;28;19926;-83
2021/12/02 09:39:38;;;;;;;;;;;5.50;99.90;;;;;;4974342;28;19950;-83
2021/12/02 09:42:10;;;;;;;;;;;5.60;99.90;;;;;;4955812;28;19926;-82
2021/12/02 09:44:36;;;;;;;;;;;5.60;99.90;;;;;;4924081;29;19926;-82
2021/12/02 09:47:03;;;;;;;;;;;5.30;99.90;;;;;;4938727;29;20279;-81
2021/12/02 09:49:29;;;;;;;;;;;4.80;99.90;;;;;;4955690;28;20021;-78
2021/12/02 09:54:39;;;;;;;;;;;4.00;99.90;;;;;;4958287;28;19929;-78
2021/12/02 09:57:07;;;;;;;;;;;3.70;99.90;;;;;;4939777;29;19985;-81
2021/12/02 10:02:09;;;;;;;;;;;3.50;99.90;;;;;;4954855;29;20024;-85
2021/12/02 10:04:40;;;;;;;;;;;3.60;99.90;;;;;;4938748;29;20253;-88
2021/12/02 10:07:08;;;;;;;;;;;3.50;99.90;;;;;;4970460;28;20326;-84
2021/12/02 10:09:48;;;;;;;;;;;3.50;99.90;;;;;;4972679;28;19926;-90
2021/12/02 10:12:17;;;;;;;;;;;3.50;99.90;;;;;;4954610;29;20402;-88
2021/12/02 10:14:49;;;;;;;;;;;3.40;99.90;;;;;;4956258;28;19941;-84
2021/12/02 10:17:39;;;;;;;;;;;3.40;99.90;;;;;;4971731;28;20390;-86
2021/12/02 10:23:35;;;;;;;;;;;3.40;99.90;;;;;;4977878;28;19933;-87
2021/12/02 10:25:58;;;;;;;;;;;3.60;99.90;;;;;;4996467;28;20021;-85
2021/12/02 10:28:24;;;;;;;;;;;3.60;99.90;;;;;;4977690;28;19937;-87
2021/12/02 10:30:55;;;;;;;;;;;3.70;99.90;;;;;;4975277;28;19929;-90
2021/12/02 10:33:32;;;;;;;;;;;3.90;99.90;;;;;;4966413;28;19973;-87
2021/12/02 10:35:57;;;;;;;;;;;4.00;99.90;;;;;;4960765;28;19977;-87
2021/12/02 10:38:33;;;;;;;;;;;4.10;99.90;;;;;;4976810;28;19930;-87
2021/12/02 10:41:00;;;;;;;;;;;4.20;99.90;;;;;;4945976;28;20434;-86
2021/12/02 10:43:26;;;;;;;;;;;4.30;99.90;;;;;;4960479;28;19926;-87
2021/12/02 10:45:52;;;;;;;;;;;4.50;99.90;;;;;;4957823;28;19932;-86
2021/12/02 10:48:19;;;;;;;;;;;4.70;99.90;;;;;;4953911;29;20489;-87
2021/12/02 10:50:45;;;;;;;;;;;4.80;99.90;;;;;;4925277;29;19926;-86
2021/12/02 10:53:10;;;;;;;;;;;5.00;99.90;;;;;;4941381;29;19977;-84
2021/12/02 10:55:36;;;;;;;;;;;5.20;99.90;;;;;;4941423;29;19934;-84
2021/12/02 10:58:02;;;;;;;;;;;5.60;99.90;;;;;;4942930;28;19973;-87
2021/12/02 11:00:34;;;;;;;;;;;5.90;99.90;;;;;;4967869;28;20348;-82
2021/12/02 11:03:07;;;;;;;;;;;6.20;99.90;;;;;;4977062;28;19922;-90
2021/12/02 11:05:33;;;;;;;;;;;6.50;99.90;;;;;;4960897;28;19972;-88
2021/12/02 11:08:07;;;;;;;;;;;7.00;99.90;;;;;;4976608;28;20441;-90
2021/12/02 11:10:37;;;;;;;;;;;7.30;99.90;;;;;;4951345;28;20080;-87
2021/12/02 11:13:03;;;;;;;;;;;7.50;99.90;;;;;;4956137;28;19926;-88
2021/12/02 11:15:29;;;;;;;;;;;7.70;99.90;;;;;;4952097;28;19930;-87
2021/12/02 11:17:57;;;;;;;;;;;8.00;99.90;;;;;;4928459;29;19926;-88
2021/12/02 11:20:23;;;;;;;;;;;8.00;99.90;;;;;;4944801;28;20290;-88
2021/12/02 11:22:58;;;;;;;;;;;8.00;99.90;;;;;;4968848;28;19926;-89
2021/12/02 11:25:24;;;;;;;;;;;8.10;99.90;;;;;;4976329;28;19937;-89
2021/12/02 11:27:51;;;;;;;;;;;8.10;99.90;;;;;;4942278;28;19926;-85
2021/12/02 11:30:27;;;;;;;;;;;8.10;99.90;;;;;;4954954;28;19981;-90
2021/12/02 11:32:56;;;;;;;;;;;8.10;99.90;;;;;;4975373;28;19926;-91
2021/12/02 11:35:27;;;;;;;;;;;8.10;99.90;;;;;;4959117;28;19926;-92
2021/12/02 11:38:05;;;;;;;;;;;8.20;99.90;;;;;;4957531;28;19926;-90
2021/12/02 11:40:32;;;;;;;;;;;8.20;99.90;;;;;;4956667;28;19973;-89
2021/12/02 11:42:58;;;;;;;;;;;8.20;99.90;;;;;;4974867;28;19929;-88
2021/12/02 11:45:26;;;;;;;;;;;8.30;99.90;;;;;;4960079;28;20017;-90
2021/12/02 11:47:53;;;;;;;;;;;8.40;99.90;;;;;;4975548;28;19926;-89
2021/12/02 11:50:20;;;;;;;;;;;8.60;99.90;;;;;;4989636;28;20404;-89
2021/12/02 11:52:46;;;;;;;;;;;8.70;99.90;;;;;;4955460;28;19930;-88
2021/12/02 11:55:13;;;;;;;;;;;8.80;99.90;;;;;;4971202;28;19976;-89
2021/12/02 11:57:39;;;;;;;;;;;8.50;99.90;;;;;;4940193;29;19931;-88
2021/12/02 12:00:09;;;;;;;;;;;8.40;99.90;;;;;;4940371;29;19933;-90
2021/12/02 12:02:35;;;;;;;;;;;8.40;99.90;;;;;;4959989;28;19974;-89
2021/12/02 12:05:05;;;;;;;;;;;8.40;99.90;;;;;;4944074;28;19973;-89
2021/12/02 12:07:38;;;;;;;;;;;8.50;99.90;;;;;;4991267;28;19954;-90
2021/12/02 12:10:22;;;;;;;;;;;8.50;99.90;;;;;;4959517;28;19984;-90
2021/12/02 12:12:50;;;;;;;;;;;8.50;99.90;;;;;;4957687;28;20300;-89
2021/12/02 12:15:32;;;;;;;;;;;8.60;99.90;;;;;;4956633;28;19945;-89
2021/12/02 12:17:58;;;;;;;;;;;8.40;99.90;;;;;;4955353;28;19926;-89
2021/12/02 12:20:45;;;;;;;;;;;8.00;99.90;;;;;;4953190;28;19972;-90
2021/12/02 12:23:29;;;;;;;;;;;7.70;99.90;;;;;;4959412;28;19926;-89
2021/12/02 12:26:08;;;;;;;;;;;7.30;99.90;;;;;;4952759;28;19926;-90
2021/12/02 12:28:56;;;;;;;;;;;7.10;99.90;;;;;;4938926;29;19930;-90
2021/12/02 12:31:24;;;;;;;;;;;7.10;99.90;;;;;;4950834;28;19933;-88
2021/12/02 12:33:50;;;;;;;;;;;7.20;99.90;;;;;;4958376;28;19927;-88
2021/12/02 12:36:37;;;;;;;;;;;7.50;99.90;;;;;;4956075;28;19973;-86
2021/12/02 12:39:16;;;;;;;;;;;7.90;99.90;;;;;;4952789;28;19960;-87
2021/12/02 12:42:04;;;;;;;;;;;8.00;99.90;;;;;;4946082;28;20418;-89
2021/12/02 12:44:49;;;;;;;;;;;7.80;99.90;;;;;;4969730;28;20009;-89
2021/12/02 12:47:16;;;;;;;;;;;7.60;99.90;;;;;;4947039;28;19926;-89
2021/12/02 12:49:42;;;;;;;;;;;7.40;99.90;;;;;;4974205;28;20260;-85
2021/12/02 12:52:18;;;;;;;;;;;7.40;99.90;;;;;;4957186;28;19927;-87
2021/12/02 12:55:02;;;;;;;;;;;7.70;99.90;;;;;;4973587;28;19937;-87
2021/12/02 12:57:28;;;;;;;;;;;8.10;99.90;;;;;;4945924;29;19926;-89
2021/12/02 12:59:56;;;;;;;;;;;8.50;99.90;;;;;;4941860;28;19929;-87
2021/12/02 13:02:24;;;;;;;;;;;8.80;99.90;;;;;;4961454;28;20379;-88
2021/12/02 13:04:52;;;;;;;;;;;9.10;99.90;;;;;;4959729;28;20371;-88
2021/12/02 13:07:20;;;;;;;;;;;9.30;99.90;;;;;;4961737;28;19934;-89
2021/12/02 13:10:08;;;;;;;;;;;9.50;99.90;;;;;;4957813;28;19934;-89
2021/12/02 13:12:37;;;;;;;;;;;9.60;99.90;;;;;;4969576;28;19934;-89
2021/12/02 13:15:06;;;;;;;;;;;9.20;99.90;;;;;;4960143;28;19927;-88
2021/12/02 13:17:39;;;;;;;;;;;8.70;99.90;;;;;;4973502;28;20088;-89
2021/12/02 13:20:16;;;;;;;;;;;8.10;99.90;;;;;;4973710;28;19933;-88
2021/12/02 13:22:42;;;;;;;;;;;7.60;99.90;;;;;;4951739;28;19986;-88
2021/12/02 13:25:24;;;;;;;;;;;7.30;99.90;;;;;;4957875;28;19977;-88
2021/12/02 13:27:51;;;;;;;;;;;6.90;99.90;;;;;;4955802;28;19926;-88
2021/12/02 13:30:16;;;;;;;;;;;6.70;99.90;;;;;;4956834;28;20005;-89
2021/12/02 13:32:49;;;;;;;;;;;6.40;99.90;;;;;;4949432;29;20009;-88
2021/12/02 13:35:26;;;;;;;;;;;6.40;99.90;;;;;;4938248;28;19926;-88
2021/12/02 13:38:04;;;;;;;;;;;6.30;99.90;;;;;;4963879;28;19926;-90
2021/12/02 13:40:34;;;;;;;;;;;6.10;99.90;;;;;;4939246;28;20295;-86
2021/12/02 13:43:00;;;;;;;;;;;6.10;99.90;;;;;;4955008;28;20014;-89
2021/12/02 13:45:26;;;;;;;;;;;6.00;99.90;;;;;;4940398;28;20042;-88
2021/12/02 13:48:05;;;;;;;;;;;5.90;99.90;;;;;;4939255;28;20012;-87
2021/12/02 13:50:40;;;;;;;;;;;5.80;99.90;;;;;;4950470;28;19965;-88
2021/12/02 13:53:07;;;;;;;;;;;5.70;99.90;;;;;;4955624;28;19933;-88
2021/12/02 13:55:37;;;;;;;;;;;5.60;99.90;;;;;;4960513;28;19926;-88
2021/12/02 14:00:40;;;;;;;;;;;5.50;99.90;;;;;;4958784;28;20072;-87
2021/12/02 14:03:16;;;;;;;;;;;5.50;99.90;;;;;;4973436;28;19933;-87
2021/12/02 14:05:43;;;;;;;;;;;5.30;99.90;;;;;;4962724;28;19930;-86
2021/12/02 14:08:11;;;;;;;;;;;5.20;99.90;;;;;;4973146;28;20295;-86
2021/12/02 14:10:37;;;;;;;;;;;5.20;99.90;;;;;;4966477;28;19933;-88
2021/12/02 14:13:04;;;;;;;;;;;5.10;99.90;;;;;;4985477;28;19937;-87
2021/12/02 14:15:35;;;;;;;;;;;5.00;99.90;;;;;;4978050;28;19926;-88
2021/12/02 14:18:04;;;;;;;;;;;5.00;99.90;;;;;;4959157;28;19969;-87
2021/12/02 14:20:36;;;;;;;;;;;4.90;99.90;;;;;;4983706;28;20017;-87
2021/12/02 14:23:02;;;;;;;;;;;4.90;99.90;;;;;;4960346;28;20000;-89
2021/12/02 14:25:29;;;;;;;;;;;4.80;99.90;;;;;;4953670;28;19926;-87
2021/12/02 14:28:08;;;;;;;;;;;4.80;99.90;;;;;;4955893;28;20283;-87
2021/12/02 14:30:43;;;;;;;;;;;4.70;99.90;;;;;;4976220;28;20381;-89
2021/12/02 14:33:09;;;;;;;;;;;4.80;99.90;;;;;;4976977;28;19937;-88
2021/12/02 14:35:46;;;;;;;;;;;4.70;99.90;;;;;;4960485;28;19926;-86
2021/12/02 14:38:16;;;;;;;;;;;4.60;99.90;;;;;;4945783;28;19937;-88
2021/12/02 14:40:46;;;;;;;;;;;4.50;99.90;;;;;;4960627;28;19926;-87
2021/12/02 14:43:15;;;;;;;;;;;4.40;99.90;;;;;;4973036;28;19934;-89
2021/12/02 14:45:41;;;;;;;;;;;4.40;99.90;;;;;;4971041;28;19927;-85
2021/12/02 14:48:26;;;;;;;;;;;4.30;99.90;;;;;;4972569;28;20455;-81
2021/12/02 14:50:59;;;;;;;;;;;4.30;99.90;;;;;;4962527;28;19977;-86
2021/12/02 14:53:29;;;;;;;;;;;4.20;99.90;;;;;;4976446;28;19930;-86
2021/12/02 14:55:57;;;;;;;;;;;4.10;99.90;;;;;;4947801;28;19931;-88
2021/12/02 14:58:26;;;;;;;;;;;4.00;99.90;;;;;;4944194;28;20018;-85